Time;durP1;ratioP1;P1;durP2;ratioP2;P2;SDS_P1;SDS_P2;PMS_P1;PMS_P2;Temp;Humidity;BMP_temperature;BMP_pressure;BME280_temperature;BME280_humidity;BME280_pressure;Samples;Min_cycle;Max_cycle;Signal;HPM_P1;HPM_P2
2020/12/10 00:01:13;;;;;;;13.15;9.68;;;3.40;99.90;;;;;;5076999;28;20211;-72
2020/12/10 00:03:40;;;;;;;15.90;10.43;;;3.50;1.00;;;;;;5064221;28;20222;-73
2020/12/10 00:06:09;;;;;;;15.98;11.25;;;3.50;99.90;;;;;;5062860;28;20285;-72
2020/12/10 00:08:36;;;;;;;13.25;9.35;;;3.50;99.90;;;;;;5066597;28;20679;-72
2020/12/10 00:11:03;;;;;;;19.00;11.45;;;3.50;99.90;;;;;;5064900;28;20218;-72
2020/12/10 00:13:30;;;;;;;13.40;10.45;;;3.50;99.90;;;;;;5067149;28;20317;-71
2020/12/10 00:16:01;;;;;;;15.77;12.05;;;3.50;1.00;;;;;;5061757;28;20232;-72
2020/12/10 00:18:28;;;;;;;17.40;11.65;;;3.50;1.00;;;;;;5062932;28;20237;-72
2020/12/10 00:20:55;;;;;;;15.00;10.95;;;3.50;1.00;;;;;;5063477;28;20227;-72
2020/12/10 00:23:23;;;;;;;15.65;10.77;;;3.40;99.90;;;;;;5064314;28;20237;-74
2020/12/10 00:25:51;;;;;;;16.48;11.05;;;3.50;99.90;;;;;;5063326;28;20246;-72
2020/12/10 00:28:18;;;;;;;16.05;10.88;;;3.50;1.00;;;;;;5066445;28;20611;-72
2020/12/10 00:30:45;;;;;;;17.30;11.73;;;3.50;99.90;;;;;;5062105;28;20234;-73
2020/12/10 00:33:12;;;;;;;18.48;12.10;;;3.50;1.00;;;;;;5064086;28;20211;-73
2020/12/10 00:35:39;;;;;;;17.17;10.98;;;3.50;99.90;;;;;;5063489;28;20682;-73
2020/12/10 00:38:06;;;;;;;16.63;12.18;;;3.50;99.90;;;;;;5064467;28;20208;-72
2020/12/10 00:40:34;;;;;;;17.83;11.50;;;3.50;99.90;;;;;;5056122;28;20688;-72
2020/12/10 00:43:01;;;;;;;15.90;10.57;;;3.40;99.90;;;;;;5060123;28;20221;-73
2020/12/10 00:45:28;;;;;;;19.05;11.70;;;3.40;1.00;;;;;;5051511;28;20243;-73
2020/12/10 00:47:56;;;;;;;15.27;10.32;;;3.40;1.00;;;;;;5056258;28;20243;-73
2020/12/10 00:50:23;;;;;;;17.55;10.80;;;3.40;99.90;;;;;;5065958;28;20203;-73
2020/12/10 00:52:51;;;;;;;16.10;11.75;;;3.40;99.90;;;;;;5064987;28;20243;-73
2020/12/10 00:55:18;;;;;;;14.63;10.55;;;3.40;99.90;;;;;;5061146;28;20216;-73
2020/12/10 00:57:46;;;;;;;20.55;12.30;;;3.40;99.90;;;;;;5064537;28;20995;-73
2020/12/10 01:00:13;;;;;;;17.75;11.57;;;3.40;99.90;;;;;;5061567;28;20272;-73
2020/12/10 01:02:40;;;;;;;16.75;11.60;;;3.40;99.90;;;;;;5065951;28;20765;-73
2020/12/10 01:05:08;;;;;;;18.98;11.57;;;3.30;99.90;;;;;;5064364;28;20234;-72
2020/12/10 01:07:35;;;;;;;15.45;9.98;;;3.30;99.90;;;;;;5057834;28;20247;-72
2020/12/10 01:10:05;;;;;;;21.35;10.82;;;3.40;99.90;;;;;;5064875;28;20302;-72
2020/12/10 01:12:32;;;;;;;14.80;10.70;;;3.30;99.90;;;;;;5065947;28;20240;-73
2020/12/10 01:15:01;;;;;;;15.52;10.07;;;3.30;1.00;;;;;;5057080;28;20699;-73
2020/12/10 01:17:28;;;;;;;12.95;10.60;;;3.30;1.00;;;;;;5063856;28;20731;-73
2020/12/10 01:19:55;;;;;;;17.20;11.40;;;3.30;1.00;;;;;;5060415;28;20219;-73
2020/12/10 01:22:22;;;;;;;18.80;10.88;;;3.30;1.00;;;;;;5057456;28;20654;-72
2020/12/10 01:24:49;;;;;;;17.13;11.18;;;3.40;1.00;;;;;;5059877;28;20259;-73
2020/12/10 01:27:21;;;;;;;17.00;10.65;;;3.40;1.00;;;;;;5059390;28;20744;-72
2020/12/10 01:29:50;;;;;;;16.23;10.15;;;3.40;1.00;;;;;;5064161;28;20211;-73
2020/12/10 01:32:18;;;;;;;18.27;11.25;;;3.40;99.90;;;;;;5063788;28;20219;-71
2020/12/10 01:34:45;;;;;;;13.73;9.07;;;3.40;99.90;;;;;;5063748;28;20215;-72
2020/12/10 01:37:12;;;;;;;17.15;10.13;;;3.30;99.90;;;;;;5063024;28;20594;-72
2020/12/10 01:39:39;;;;;;;20.23;10.65;;;3.30;99.90;;;;;;5067708;28;20218;-72
2020/12/10 01:42:08;;;;;;;16.05;11.38;;;3.30;99.90;;;;;;5060210;28;20218;-72
2020/12/10 01:44:35;;;;;;;13.93;9.80;;;3.30;99.90;;;;;;5064825;28;20309;-73
2020/12/10 01:47:02;;;;;;;15.85;10.75;;;3.30;1.00;;;;;;5065311;28;20232;-72
2020/12/10 01:49:34;;;;;;;17.67;11.25;;;3.30;1.00;;;;;;5060083;28;20206;-73
2020/12/10 01:52:01;;;;;;;17.63;10.30;;;3.40;1.00;;;;;;5060990;28;20686;-72
2020/12/10 01:54:28;;;;;;;17.55;12.50;;;3.40;1.00;;;;;;5064737;28;20226;-72
2020/12/10 01:56:56;;;;;;;13.23;10.02;;;3.40;99.90;;;;;;5063370;28;20675;-72
2020/12/10 01:59:24;;;;;;;14.95;9.75;;;3.40;99.90;;;;;;5062146;28;20219;-73
2020/12/10 02:01:51;;;;;;;13.85;10.40;;;3.40;1.00;;;;;;5061349;28;20275;-74
2020/12/10 02:04:29;;;;;;;17.50;11.48;;;3.40;99.90;;;;;;5065244;28;20212;-73
2020/12/10 02:06:58;;;;;;;17.17;10.23;;;3.30;99.90;;;;;;5062337;28;20241;-72
2020/12/10 02:09:25;;;;;;;16.80;11.18;;;3.30;99.90;;;;;;5063096;28;20269;-72
2020/12/10 02:11:53;;;;;;;17.73;10.27;;;3.30;1.00;;;;;;5062582;28;20314;-72
2020/12/10 02:14:20;;;;;;;15.13;10.65;;;3.30;1.00;;;;;;5064400;28;20330;-73
2020/12/10 02:16:53;;;;;;;16.98;11.57;;;3.40;1.00;;;;;;5057600;28;20231;-72
2020/12/10 02:19:20;;;;;;;15.90;10.75;;;3.30;99.90;;;;;;5063386;28;20259;-73
2020/12/10 02:21:48;;;;;;;13.13;10.18;;;3.20;99.90;;;;;;5059049;28;20259;-72
2020/12/10 02:24:16;;;;;;;15.63;10.15;;;3.20;99.90;;;;;;5058462;28;20223;-73
2020/12/10 02:26:43;;;;;;;21.70;11.80;;;3.20;1.00;;;;;;5056744;28;20228;-72
2020/12/10 02:29:11;;;;;;;16.17;10.82;;;3.20;1.00;;;;;;5059755;28;20748;-73
2020/12/10 02:31:38;;;;;;;18.25;10.65;;;3.20;99.90;;;;;;5060719;28;20687;-72
2020/12/10 02:34:07;;;;;;;18.45;11.50;;;3.20;1.00;;;;;;5061919;28;20219;-73
2020/12/10 02:36:36;;;;;;;15.63;10.85;;;3.30;1.00;;;;;;5062717;28;20286;-73
2020/12/10 02:39:06;;;;;;;18.23;10.63;;;3.30;1.00;;;;;;5055914;28;20235;-72
2020/12/10 02:41:34;;;;;;;18.13;11.75;;;3.30;99.90;;;;;;5058405;28;20216;-73
2020/12/10 02:44:01;;;;;;;20.52;11.48;;;3.30;99.90;;;;;;5059081;28;20796;-72
2020/12/10 02:46:28;;;;;;;15.00;11.15;;;3.20;99.90;;;;;;5061801;28;20657;-72
2020/12/10 02:48:56;;;;;;;14.32;9.90;;;3.30;99.90;;;;;;5065275;28;20642;-72
2020/12/10 02:51:23;;;;;;;15.52;10.40;;;3.30;99.90;;;;;;5059334;28;20202;-72
2020/12/10 02:53:50;;;;;;;18.70;10.93;;;3.30;99.90;;;;;;5064434;28;20253;-72
2020/12/10 02:56:17;;;;;;;15.30;9.95;;;3.30;99.90;;;;;;5064756;28;20234;-73
2020/12/10 02:58:45;;;;;;;16.08;9.75;;;3.20;99.90;;;;;;5064148;28;20633;-72
2020/12/10 03:01:13;;;;;;;14.07;10.32;;;3.00;99.90;;;;;;5063157;28;20588;-71
2020/12/10 03:03:40;;;;;;;16.77;11.02;;;2.90;1.00;;;;;;5065611;28;20217;-72
2020/12/10 03:06:08;;;;;;;15.20;9.68;;;2.90;1.00;;;;;;5062304;28;20826;-72
2020/12/10 03:08:35;;;;;;;15.48;9.80;;;2.90;1.00;;;;;;5064503;28;20317;-72
2020/12/10 03:11:03;;;;;;;15.60;10.43;;;3.00;1.00;;;;;;5062628;28;20801;-72
2020/12/10 03:13:30;;;;;;;15.23;10.10;;;3.10;1.00;;;;;;5068439;28;20203;-72
2020/12/10 03:15:58;;;;;;;15.70;9.63;;;3.20;1.00;;;;;;5066600;28;20237;-72
2020/12/10 03:18:25;;;;;;;14.23;9.75;;;3.20;99.90;;;;;;5065001;28;20218;-72
2020/12/10 03:20:53;;;;;;;14.20;9.35;;;3.30;99.90;;;;;;5062941;28;20221;-72
2020/12/10 03:23:20;;;;;;;17.13;11.55;;;3.30;99.90;;;;;;5067327;28;20633;-72
2020/12/10 03:25:47;;;;;;;18.73;11.30;;;3.30;99.90;;;;;;5064712;28;20262;-72
2020/12/10 03:28:14;;;;;;;15.95;10.45;;;3.40;99.90;;;;;;5067768;28;20208;-73
2020/12/10 03:30:41;;;;;;;14.80;10.77;;;3.40;99.90;;;;;;5063308;28;20273;-71
2020/12/10 03:33:10;;;;;;;17.25;10.73;;;3.40;99.90;;;;;;5067052;28;20305;-73
2020/12/10 03:35:37;;;;;;;23.48;12.65;;;3.40;99.90;;;;;;5060531;28;20224;-72
2020/12/10 03:38:04;;;;;;;18.38;11.55;;;3.40;99.90;;;;;;5062447;28;20671;-72
2020/12/10 03:40:31;;;;;;;16.65;12.00;;;3.40;99.90;;;;;;5066760;28;20211;-71
2020/12/10 03:42:58;;;;;;;17.58;11.70;;;3.30;99.90;;;;;;5061641;28;20210;-72
2020/12/10 03:45:25;;;;;;;17.25;11.13;;;3.30;99.90;;;;;;5069011;28;20211;-72
2020/12/10 03:47:52;;;;;;;19.13;11.43;;;3.30;1.00;;;;;;5070268;28;20310;-72
2020/12/10 03:50:20;;;;;;;19.30;12.50;;;3.30;1.00;;;;;;5062946;28;20312;-73
2020/12/10 03:52:48;;;;;;;19.08;12.63;;;3.30;1.00;;;;;;5067349;28;20392;-72
2020/12/10 03:55:15;;;;;;;18.83;12.40;;;3.40;1.00;;;;;;5062691;28;20297;-72
2020/12/10 03:57:42;;;;;;;21.95;13.45;;;3.30;99.90;;;;;;5075601;28;20230;-72
2020/12/10 04:00:09;;;;;;;19.33;12.95;;;3.30;99.90;;;;;;5068798;28;20605;-72
2020/12/10 04:02:36;;;;;;;21.85;13.75;;;3.20;99.90;;;;;;5061301;28;20333;-73
2020/12/10 04:05:04;;;;;;;17.50;11.30;;;3.20;99.90;;;;;;5066682;28;20229;-72
2020/12/10 04:07:32;;;;;;;22.10;13.27;;;3.20;1.00;;;;;;5067648;28;20273;-73
2020/12/10 04:09:59;;;;;;;23.50;13.00;;;3.30;99.90;;;;;;5062869;28;20222;-73
2020/12/10 04:12:26;;;;;;;21.15;13.63;;;3.20;99.90;;;;;;5065420;28;20680;-73
2020/12/10 04:14:53;;;;;;;18.67;11.88;;;3.20;99.90;;;;;;5064746;28;20208;-72
2020/12/10 04:17:20;;;;;;;19.88;11.07;;;3.20;99.90;;;;;;5067715;28;20765;-72
2020/12/10 04:19:48;;;;;;;20.63;12.35;;;3.20;99.90;;;;;;5073412;28;20302;-72
2020/12/10 04:22:15;;;;;;;20.63;13.18;;;3.20;99.90;;;;;;5060248;28;20308;-72
2020/12/10 04:24:43;;;;;;;19.73;12.05;;;3.20;99.90;;;;;;5063179;28;20231;-72
2020/12/10 04:27:10;;;;;;;19.75;12.00;;;3.20;99.90;;;;;;5062780;28;20826;-72
2020/12/10 04:29:37;;;;;;;23.48;12.85;;;3.20;1.00;;;;;;5072568;28;20203;-73
2020/12/10 04:32:04;;;;;;;23.63;12.93;;;3.20;1.00;;;;;;5067565;28;20661;-72
2020/12/10 04:34:32;;;;;;;26.15;13.50;;;3.20;1.00;;;;;;5066081;28;20745;-72
2020/12/10 04:36:59;;;;;;;22.05;13.55;;;3.10;1.00;;;;;;5068636;28;20231;-73
2020/12/10 04:39:26;;;;;;;22.77;13.38;;;3.10;1.00;;;;;;5064057;28;20221;-72
2020/12/10 04:41:54;;;;;;;21.83;12.95;;;3.10;1.00;;;;;;5069974;28;20214;-72
2020/12/10 04:44:21;;;;;;;24.77;14.82;;;3.10;1.00;;;;;;5068015;28;20230;-73
2020/12/10 04:46:50;;;;;;;20.02;12.90;;;3.10;1.00;;;;;;5068053;28;20222;-72
2020/12/10 04:49:17;;;;;;;24.95;13.85;;;3.10;1.00;;;;;;5065679;28;20217;-73
2020/12/10 04:51:46;;;;;;;22.45;12.43;;;3.10;1.00;;;;;;5063246;28;20216;-72
2020/12/10 04:54:14;;;;;;;25.38;13.85;;;3.10;1.00;;;;;;5068778;28;20308;-72
2020/12/10 04:56:42;;;;;;;18.95;12.57;;;3.00;1.00;;;;;;5064304;28;20293;-73
2020/12/10 04:59:09;;;;;;;22.65;13.15;;;3.00;1.00;;;;;;5067404;28;20284;-73
2020/12/10 05:01:37;;;;;;;20.95;12.65;;;3.10;1.00;;;;;;5062479;28;20226;-73
2020/12/10 05:04:04;;;;;;;23.63;13.63;;;3.10;1.00;;;;;;5064398;28;20226;-72
2020/12/10 05:06:32;;;;;;;23.98;14.05;;;3.10;1.00;;;;;;5066203;28;20245;-73
2020/12/10 05:09:07;;;;;;;21.67;12.50;;;3.00;1.00;;;;;;5066674;28;20737;-74
2020/12/10 05:11:36;;;;;;;20.40;13.50;;;3.00;1.00;;;;;;5054844;28;20223;-74
2020/12/10 05:14:04;;;;;;;21.88;12.50;;;3.00;1.00;;;;;;5058340;28;20212;-73
2020/12/10 05:16:32;;;;;;;21.80;13.38;;;3.00;1.00;;;;;;5064527;28;20225;-73
2020/12/10 05:19:18;;;;;;;18.35;12.90;;;2.90;1.00;;;;;;5063152;28;20593;-72
2020/12/10 05:22:05;;;;;;;19.92;12.88;;;2.80;1.00;;;;;;5055665;28;20241;-73
2020/12/10 05:24:32;;;;;;;20.40;11.95;;;2.80;1.00;;;;;;5061189;28;20213;-74
2020/12/10 05:27:18;;;;;;;23.02;13.38;;;2.80;1.00;;;;;;5065038;28;20799;-73
2020/12/10 05:29:46;;;;;;;22.00;14.20;;;2.80;1.00;;;;;;5057049;28;20215;-74
2020/12/10 05:32:37;;;;;;;22.88;14.18;;;2.80;1.00;;;;;;5062813;28;20491;-73
2020/12/10 05:35:22;;;;;;;25.00;14.30;;;2.80;1.00;;;;;;5063823;28;20292;-70
2020/12/10 05:37:51;;;;;;;23.85;15.95;;;2.80;1.00;;;;;;5053001;28;20548;-72
2020/12/10 05:40:18;;;;;;;25.80;15.13;;;2.90;1.00;;;;;;5068618;28;20264;-73
2020/12/10 05:42:46;;;;;;;24.75;13.85;;;2.90;1.00;;;;;;5057776;28;20279;-72
2020/12/10 05:45:15;;;;;;;26.25;15.45;;;2.90;1.00;;;;;;5059070;28;20268;-73
2020/12/10 05:47:48;;;;;;;22.75;14.57;;;2.90;1.00;;;;;;5063209;28;20237;-73
2020/12/10 05:50:17;;;;;;;24.40;14.32;;;2.70;1.00;;;;;;5065481;28;20258;-73
2020/12/10 05:52:55;;;;;;;22.83;13.77;;;2.70;1.00;;;;;;5058448;28;20301;-73
2020/12/10 05:55:22;;;;;;;28.27;15.10;;;2.70;1.00;;;;;;5060735;28;20269;-73
2020/12/10 05:57:51;;;;;;;27.75;15.07;;;2.70;1.00;;;;;;5059996;28;20235;-73
2020/12/10 06:00:18;;;;;;;24.13;13.75;;;2.60;1.00;;;;;;5057140;28;20635;-72
2020/12/10 06:02:47;;;;;;;31.08;15.45;;;2.60;1.00;;;;;;5057014;28;20205;-74
2020/12/10 06:05:14;;;;;;;27.23;14.90;;;2.50;1.00;;;;;;5056800;28;20738;-73
2020/12/10 06:07:57;;;;;;;28.60;17.33;;;2.50;1.00;;;;;;5060894;28;20490;-74
2020/12/10 06:10:25;;;;;;;28.35;18.90;;;2.50;1.00;;;;;;5057518;28;20515;-73
2020/12/10 06:12:52;;;;;;;29.25;16.30;;;2.70;1.00;;;;;;5055018;28;20215;-75
2020/12/10 06:15:24;;;;;;;24.48;14.75;;;2.70;1.00;;;;;;5059050;28;20631;-72
2020/12/10 06:18:03;;;;;;;23.58;14.70;;;2.80;1.00;;;;;;5064592;28;20237;-73
2020/12/10 06:20:35;;;;;;;29.20;17.70;;;2.80;1.00;;;;;;5061690;28;20483;-75
2020/12/10 06:23:37;;;;;;;29.20;17.33;;;2.80;1.00;;;;;;5056772;28;20216;-73
2020/12/10 06:26:34;;;;;;;20.73;13.45;;;2.80;1.00;;;;;;5059876;28;20298;-72
2020/12/10 06:29:23;;;;;;;27.00;14.68;;;2.90;1.00;;;;;;5064719;28;20817;-73
2020/12/10 06:32:02;;;;;;;23.50;13.57;;;2.90;1.00;;;;;;5064313;28;20215;-73
2020/12/10 06:34:44;;;;;;;27.30;14.75;;;3.00;1.00;;;;;;5067464;28;20252;-74
2020/12/10 06:37:22;;;;;;;26.40;14.68;;;3.00;1.00;;;;;;5061329;28;20234;-73
2020/12/10 06:39:51;;;;;;;15.70;11.95;;;3.00;1.00;;;;;;5047677;28;20216;-71
2020/12/10 06:42:19;;;;;;;22.02;13.70;;;3.00;1.00;;;;;;5061943;28;20259;-72
2020/12/10 06:44:46;;;;;;;23.90;13.68;;;3.00;99.90;;;;;;5066119;28;20712;-72
2020/12/10 06:47:14;;;;;;;24.70;13.02;;;3.00;99.90;;;;;;5065499;28;20792;-73
2020/12/10 06:49:42;;;;;;;22.35;14.23;;;2.90;99.90;;;;;;5067347;28;20212;-72
2020/12/10 06:52:15;;;;;;;20.63;12.73;;;2.90;99.90;;;;;;5067394;28;20675;-72
2020/12/10 06:55:05;;;;;;;19.73;13.90;;;2.90;99.90;;;;;;5058386;28;20213;-74
2020/12/10 06:58:05;;;;;;;27.02;14.57;;;2.90;99.90;;;;;;5062775;28;20230;-73
2020/12/10 07:00:42;;;;;;;20.27;12.52;;;2.90;99.90;;;;;;5064158;28;20341;-72
2020/12/10 07:03:14;;;;;;;21.85;12.93;;;3.00;99.90;;;;;;5066898;28;20292;-72
2020/12/10 07:05:42;;;;;;;18.70;12.00;;;3.00;99.90;;;;;;5063165;28;20216;-72
2020/12/10 07:08:11;;;;;;;13.02;9.10;;;3.00;99.90;;;;;;5071204;28;20897;-73
2020/12/10 07:10:39;;;;;;;14.82;9.38;;;3.00;99.90;;;;;;5066501;28;20220;-73
2020/12/10 07:13:07;;;;;;;16.40;10.20;;;3.00;99.90;;;;;;5061174;28;20224;-73
2020/12/10 07:15:34;;;;;;;18.95;10.45;;;3.00;99.90;;;;;;5064320;28;20214;-73
2020/12/10 07:18:03;;;;;;;17.98;10.95;;;3.00;99.90;;;;;;5064853;28;20225;-74
2020/12/10 07:20:32;;;;;;;24.65;12.98;;;3.00;99.90;;;;;;5062250;28;20210;-73
2020/12/10 07:23:01;;;;;;;28.70;13.40;;;3.10;99.90;;;;;;5061058;28;20690;-73
2020/12/10 07:25:30;;;;;;;22.55;12.10;;;3.00;99.90;;;;;;5071747;28;20802;-72
2020/12/10 07:27:57;;;;;;;19.50;12.48;;;3.10;99.90;;;;;;5067791;28;20656;-73
2020/12/10 07:30:26;;;;;;;20.80;11.98;;;3.00;99.90;;;;;;5070549;28;20218;-72
2020/12/10 07:32:54;;;;;;;18.88;11.20;;;3.00;73.80;;;;;;5059078;28;20218;-72
2020/12/10 07:35:33;;;;;;;16.50;10.43;;;3.00;18.60;;;;;;5071570;28;20688;-72
2020/12/10 07:38:11;;;;;;;16.85;9.60;;;2.90;1.00;;;;;;5062387;28;20233;-72
2020/12/10 07:40:39;;;;;;;15.68;9.98;;;2.80;1.00;;;;;;5062861;28;20215;-72
2020/12/10 07:43:08;;;;;;;18.08;10.75;;;2.80;62.60;;;;;;5067795;28;20277;-72
2020/12/10 07:45:35;;;;;;;17.58;11.80;;;2.80;99.90;;;;;;5066760;28;20218;-73
2020/12/10 07:48:04;;;;;;;16.27;10.18;;;2.90;99.90;;;;;;5070327;28;20216;-71
2020/12/10 07:50:33;;;;;;;14.20;9.25;;;2.80;1.00;;;;;;5060767;28;20228;-72
2020/12/10 07:53:07;;;;;;;17.33;10.05;;;2.90;1.00;;;;;;5062530;28;20211;-74
2020/12/10 07:55:36;;;;;;;17.13;10.30;;;2.90;99.90;;;;;;5066353;28;20234;-73
2020/12/10 07:58:19;;;;;;;18.55;11.13;;;3.00;91.90;;;;;;5060744;28;20236;-73
2020/12/10 08:00:48;;;;;;;16.35;10.68;;;3.10;95.10;;;;;;5064449;28;20222;-71
2020/12/10 08:03:26;;;;;;;19.85;10.43;;;3.10;63.00;;;;;;5064378;28;20803;-72
2020/12/10 08:06:05;;;;;;;19.45;12.48;;;3.10;17.90;;;;;;5063362;28;20229;-72
2020/12/10 08:08:34;;;;;;;19.15;10.75;;;3.10;86.40;;;;;;5064650;28;20222;-75
2020/12/10 08:11:16;;;;;;;18.23;11.63;;;3.10;99.90;;;;;;5065051;28;20216;-73
2020/12/10 08:13:57;;;;;;;15.63;9.88;;;3.10;99.90;;;;;;5064180;28;20334;-74
2020/12/10 08:16:35;;;;;;;14.45;9.23;;;3.00;1.00;;;;;;5064941;28;20288;-74
2020/12/10 08:19:11;;;;;;;20.20;10.98;;;2.90;1.00;;;;;;5064069;28;20238;-70
2020/12/10 08:21:38;;;;;;;16.73;11.00;;;2.90;99.90;;;;;;5063570;28;20221;-73
2020/12/10 08:24:05;;;;;;;19.75;11.00;;;3.00;99.90;;;;;;5061880;28;20210;-71
2020/12/10 08:26:33;;;;;;;18.25;10.77;;;3.00;6.90;;;;;;5063352;28;20239;-73
2020/12/10 08:29:00;;;;;;;19.73;12.25;;;2.80;99.90;;;;;;5067820;28;20214;-74
2020/12/10 08:31:29;;;;;;;20.50;12.68;;;2.70;99.90;;;;;;5061412;28;20637;-72
2020/12/10 08:33:57;;;;;;;20.20;12.90;;;2.70;99.90;;;;;;5067403;28;20218;-72
2020/12/10 08:36:26;;;;;;;18.55;11.48;;;2.70;99.90;;;;;;5061871;28;20230;-72
2020/12/10 08:38:54;;;;;;;18.98;11.60;;;2.70;99.90;;;;;;5063030;28;20325;-72
2020/12/10 08:41:27;;;;;;;19.15;10.65;;;2.40;99.90;;;;;;5064573;28;20247;-73
2020/12/10 08:43:57;;;;;;;19.65;10.90;;;2.40;99.90;;;;;;5064354;28;20333;-71
2020/12/10 08:46:25;;;;;;;17.48;11.80;;;2.40;1.00;;;;;;5063126;28;20248;-72
2020/12/10 08:48:54;;;;;;;18.90;12.00;;;2.50;1.00;;;;;;5063733;28;20215;-71
2020/12/10 08:51:21;;;;;;;15.48;10.45;;;2.60;99.90;;;;;;5062194;28;20583;-73
2020/12/10 08:53:50;;;;;;;18.00;10.45;;;2.60;99.90;;;;;;5064305;28;20221;-72
2020/12/10 08:56:22;;;;;;;17.40;8.88;;;2.50;99.90;;;;;;5064726;28;20233;-73
2020/12/10 08:58:49;;;;;;;13.07;9.05;;;2.50;99.90;;;;;;5064726;28;20591;-73
2020/12/10 09:01:17;;;;;;;13.75;7.93;;;2.60;99.90;;;;;;5064909;28;20220;-72
2020/12/10 09:03:45;;;;;;;10.10;7.10;;;2.60;99.90;;;;;;5065045;28;20218;-72
2020/12/10 09:06:13;;;;;;;11.20;8.02;;;2.70;1.00;;;;;;5063297;28;20238;-72
2020/12/10 09:08:40;;;;;;;11.68;8.63;;;2.60;1.00;;;;;;5062592;28;20823;-73
2020/12/10 09:11:08;;;;;;;12.70;7.90;;;2.60;1.00;;;;;;5064653;28;20333;-72
2020/12/10 09:13:35;;;;;;;8.85;7.03;;;2.60;1.00;;;;;;5062266;28;20261;-73
2020/12/10 09:16:02;;;;;;;13.30;6.70;;;2.50;1.00;;;;;;5065201;28;20778;-73
2020/12/10 09:18:31;;;;;;;13.57;8.00;;;2.50;99.90;;;;;;5061550;28;20242;-73
2020/12/10 09:20:58;;;;;;;14.20;8.70;;;2.40;1.00;;;;;;5064129;28;20225;-72
2020/12/10 09:23:26;;;;;;;11.13;7.13;;;2.40;1.00;;;;;;5062331;28;20303;-73
2020/12/10 09:25:54;;;;;;;8.82;6.30;;;2.40;1.00;;;;;;5063551;28;20315;-72
2020/12/10 09:28:21;;;;;;;10.65;7.55;;;2.50;1.00;;;;;;5066815;28;20231;-73
2020/12/10 09:30:49;;;;;;;8.30;6.28;;;2.60;99.90;;;;;;5063544;28;20241;-73
2020/12/10 09:33:16;;;;;;;7.45;6.22;;;2.70;99.90;;;;;;5063767;28;20302;-76
2020/12/10 09:35:45;;;;;;;10.57;6.80;;;2.70;95.40;;;;;;5060370;28;20219;-71
2020/12/10 09:38:13;;;;;;;6.88;5.53;;;2.70;1.00;;;;;;5063388;28;20243;-71
2020/12/10 09:40:40;;;;;;;8.90;6.32;;;2.80;9.70;;;;;;5079593;28;20214;-73
2020/12/10 09:43:07;;;;;;;7.90;6.32;;;2.90;99.90;;;;;;5062291;28;20211;-72
2020/12/10 09:45:35;;;;;;;7.53;5.70;;;2.80;34.40;;;;;;5066128;28;20313;-73
2020/12/10 09:48:03;;;;;;;7.80;5.55;;;3.00;1.00;;;;;;5060888;28;20229;-73
2020/12/10 09:50:33;;;;;;;5.00;4.55;;;3.10;1.00;;;;;;5060095;28;20292;-72
2020/12/10 09:53:09;;;;;;;7.00;5.60;;;3.10;99.90;;;;;;5063122;28;20217;-72
2020/12/10 09:56:12;;;;;;;6.95;4.85;;;3.10;99.90;;;;;;5063492;28;20239;-70
2020/12/10 09:58:37;;;;;;;5.80;4.90;;;3.10;13.70;;;;;;5061839;28;20233;-70
2020/12/10 10:01:08;;;;;;;6.75;4.97;;;3.30;1.00;;;;;;5059981;28;20818;-74
2020/12/10 10:03:35;;;;;;;7.47;5.95;;;3.40;99.90;;;;;;5055608;28;20217;-73
2020/12/10 10:06:03;;;;;;;7.32;5.55;;;3.50;1.00;;;;;;5066482;28;20273;-74
2020/12/10 10:08:33;;;;;;;7.72;5.80;;;3.60;4.80;;;;;;5061885;28;20773;-74
2020/12/10 10:11:00;;;;;;;5.97;4.93;;;3.60;1.00;;;;;;5066924;28;20209;-74
2020/12/10 10:13:27;;;;;;;6.97;5.00;;;3.60;1.00;;;;;;5054455;28;20303;-74
2020/12/10 10:15:55;;;;;;;6.70;5.72;;;3.70;1.00;;;;;;5068016;28;20225;-74
2020/12/10 10:18:22;;;;;;;8.90;5.95;;;3.70;99.90;;;;;;5065958;28;20329;-74
2020/12/10 10:20:50;;;;;;;8.82;6.10;;;3.60;13.50;;;;;;5067171;28;20226;-73
2020/12/10 10:23:19;;;;;;;8.73;5.32;;;3.60;99.90;;;;;;5069625;28;20746;-74
2020/12/10 10:25:47;;;;;;;7.45;5.70;;;3.60;12.60;;;;;;5075179;28;20210;-73
2020/12/10 10:28:15;;;;;;;5.38;4.45;;;3.50;1.00;;;;;;5069341;28;20239;-75
2020/12/10 10:30:43;;;;;;;8.70;5.38;;;3.50;99.90;;;;;;5072236;28;20225;-73
2020/12/10 10:33:10;;;;;;;7.10;5.55;;;3.50;99.90;;;;;;5069568;28;20548;-73
2020/12/10 10:35:37;;;;;;;7.63;5.70;;;3.50;1.00;;;;;;5072860;28;20929;-73
2020/12/10 10:38:04;;;;;;;10.85;7.32;;;3.50;1.00;;;;;;5064626;28;21034;-73
2020/12/10 10:40:32;;;;;;;7.05;6.10;;;3.30;99.90;;;;;;5063947;28;20273;-73
2020/12/10 10:43:00;;;;;;;8.05;6.20;;;3.40;35.70;;;;;;5066356;28;20258;-72
2020/12/10 10:45:27;;;;;;;8.48;6.20;;;3.40;1.00;;;;;;5068491;28;20222;-72
2020/12/10 10:47:54;;;;;;;7.10;6.38;;;3.40;99.90;;;;;;5065063;28;20231;-73
2020/12/10 10:50:21;;;;;;;10.43;7.38;;;3.40;99.90;;;;;;5067734;28;20219;-73
2020/12/10 10:52:49;;;;;;;9.05;6.32;;;3.50;99.90;;;;;;5067468;28;20216;-70
2020/12/10 10:55:16;;;;;;;7.80;5.30;;;3.40;99.90;;;;;;5066552;28;20274;-73
2020/12/10 10:57:43;;;;;;;6.25;4.90;;;3.40;80.30;;;;;;5068424;28;20234;-72
2020/12/10 11:00:12;;;;;;;7.95;5.40;;;3.40;1.00;;;;;;5064352;28;20316;-72
2020/12/10 11:02:39;;;;;;;7.70;5.85;;;3.30;1.00;;;;;;5066882;28;20611;-72
2020/12/10 11:05:06;;;;;;;9.52;6.10;;;3.30;1.00;;;;;;5062423;28;20866;-70
2020/12/10 11:07:33;;;;;;;10.45;6.50;;;3.20;99.90;;;;;;5063659;28;20236;-72
2020/12/10 11:10:00;;;;;;;11.75;7.28;;;3.10;99.90;;;;;;5058190;28;20214;-73
2020/12/10 11:12:28;;;;;;;8.30;6.75;;;3.10;99.90;;;;;;5065832;28;20619;-73
2020/12/10 11:14:55;;;;;;;11.52;6.93;;;3.30;99.90;;;;;;5063664;28;20211;-72
2020/12/10 11:17:23;;;;;;;10.30;7.85;;;3.50;34.90;;;;;;5065018;28;20725;-72
2020/12/10 11:19:51;;;;;;;10.93;7.30;;;3.60;1.00;;;;;;5064117;28;20673;-73
2020/12/10 11:22:19;;;;;;;12.38;8.63;;;3.50;1.00;;;;;;5064600;28;20216;-73
2020/12/10 11:24:46;;;;;;;11.25;7.78;;;3.30;99.90;;;;;;5067430;28;20219;-71
2020/12/10 11:27:14;;;;;;;11.48;8.40;;;3.30;1.00;;;;;;5066990;28;20251;-72
2020/12/10 11:29:41;;;;;;;14.65;8.88;;;3.40;1.00;;;;;;5065377;28;20210;-72
2020/12/10 11:32:08;;;;;;;15.60;9.18;;;3.30;99.90;;;;;;5066042;28;20236;-73
2020/12/10 11:34:36;;;;;;;14.13;9.05;;;3.40;99.90;;;;;;5060339;28;20210;-72
2020/12/10 11:37:04;;;;;;;14.98;10.55;;;3.50;1.00;;;;;;5060829;28;20522;-71
2020/12/10 11:39:31;;;;;;;13.40;9.70;;;3.50;99.90;;;;;;5060739;28;20228;-73
2020/12/10 11:41:59;;;;;;;14.30;9.75;;;3.50;99.90;;;;;;5067830;28;20226;-73
2020/12/10 11:44:26;;;;;;;13.30;9.18;;;3.30;62.50;;;;;;5061439;28;20568;-72
2020/12/10 11:46:53;;;;;;;12.73;8.85;;;3.40;1.00;;;;;;5065461;28;20295;-73
2020/12/10 11:49:20;;;;;;;13.90;8.60;;;3.50;1.00;;;;;;5063079;28;20211;-72
2020/12/10 11:51:49;;;;;;;13.50;9.48;;;3.30;99.90;;;;;;5060119;28;20245;-71
2020/12/10 11:54:16;;;;;;;13.10;8.68;;;3.20;99.90;;;;;;5064499;28;20253;-72
2020/12/10 11:56:43;;;;;;;13.13;8.52;;;3.00;99.90;;;;;;5056495;28;20240;-74
2020/12/10 11:59:10;;;;;;;13.35;8.77;;;3.30;1.00;;;;;;5057506;28;20311;-71
2020/12/10 12:01:38;;;;;;;16.88;9.85;;;3.40;1.00;;;;;;5060194;28;20246;-71
2020/12/10 12:04:06;;;;;;;14.20;9.55;;;3.30;1.00;;;;;;5062247;28;20289;-70
2020/12/10 12:06:33;;;;;;;16.23;10.60;;;3.20;99.90;;;;;;5066074;28;20319;-71
2020/12/10 12:09:01;;;;;;;16.13;10.10;;;3.20;99.90;;;;;;5061953;28;20202;-70
2020/12/10 12:11:28;;;;;;;14.35;9.60;;;3.20;1.00;;;;;;5063853;28;20671;-71
2020/12/10 12:13:56;;;;;;;11.98;8.85;;;3.30;1.00;;;;;;5057170;28;20717;-71
2020/12/10 12:16:23;;;;;;;16.52;8.40;;;3.30;99.90;;;;;;5067863;28;20236;-71
2020/12/10 12:18:50;;;;;;;13.27;9.45;;;3.40;1.00;;;;;;5067178;28;20385;-72
2020/12/10 12:21:23;;;;;;;11.00;8.52;;;3.20;99.90;;;;;;5064916;28;20749;-71
2020/12/10 12:23:51;;;;;;;14.57;9.15;;;3.10;1.00;;;;;;5063838;28;20208;-72
2020/12/10 12:26:20;;;;;;;11.05;7.45;;;3.20;1.00;;;;;;5063478;28;20359;-69
2020/12/10 12:28:49;;;;;;;13.13;8.82;;;3.20;99.90;;;;;;5066329;28;20214;-70
2020/12/10 12:31:17;;;;;;;9.02;6.88;;;3.20;99.90;;;;;;5066534;28;20218;-70
2020/12/10 12:34:03;;;;;;;11.45;7.60;;;3.40;1.00;;;;;;5066271;28;20208;-71
2020/12/10 12:36:31;;;;;;;13.00;8.65;;;3.40;1.00;;;;;;5063363;28;20707;-72
2020/12/10 12:38:58;;;;;;;11.82;7.82;;;3.30;1.00;;;;;;5062381;28;20885;-74
2020/12/10 12:41:29;;;;;;;11.38;7.95;;;3.40;1.00;;;;;;5065863;28;20274;-72
2020/12/10 12:43:58;;;;;;;16.40;9.48;;;3.50;1.00;;;;;;5064190;28;20198;-72
2020/12/10 12:46:26;;;;;;;12.18;7.80;;;3.40;99.90;;;;;;5063881;28;20733;-73
2020/12/10 12:48:55;;;;;;;12.30;8.43;;;3.50;1.00;;;;;;5065239;28;20205;-73
2020/12/10 12:51:22;;;;;;;12.18;8.45;;;3.50;99.90;;;;;;5055739;28;20197;-71
2020/12/10 12:53:52;;;;;;;11.63;8.65;;;3.60;1.00;;;;;;5064819;28;20639;-71
2020/12/10 12:56:21;;;;;;;11.95;7.97;;;3.50;99.90;;;;;;5063504;28;20322;-73